createdAt,value
2022-10-17T00:01:09.392Z,97864.81
2022-10-17T00:03:38.540Z,97863.13
2022-10-17T00:06:09.389Z,97861.47
2022-10-17T00:08:38.678Z,97868.59
2022-10-17T00:11:09.353Z,97866.94
2022-10-17T00:13:37.718Z,97872.41
2022-10-17T00:16:06.700Z,97860.94
2022-10-17T00:18:35.018Z,97867.09
2022-10-17T00:21:03.452Z,97876.22
2022-10-17T00:23:34.459Z,97866.56
2022-10-17T00:26:04.983Z,97873.69
2022-10-17T00:28:33.911Z,97872.88
2022-10-17T00:31:04.574Z,97873.00
2022-10-17T00:33:34.064Z,97876.66
2022-10-17T00:36:07.106Z,97882.16
2022-10-17T00:38:38.239Z,97871.53
2022-10-17T00:41:07.146Z,97881.47
2022-10-17T00:43:51.090Z,97871.00
2022-10-17T00:46:19.918Z,97874.78
2022-10-17T00:48:49.748Z,97874.63
2022-10-17T00:51:19.629Z,97875.63
2022-10-17T00:53:49.720Z,97880.94
2022-10-17T00:56:19.879Z,97875.78
2022-10-17T00:58:48.728Z,97885.59
2022-10-17T01:01:17.080Z,97883.91
2022-10-17T01:03:45.540Z,97891.06
2022-10-17T01:06:13.982Z,97881.41
2022-10-17T01:08:42.426Z,97892.03
2022-10-17T01:11:21.771Z,97894.00
2022-10-17T01:13:53.301Z,97893.16
2022-10-17T01:16:31.126Z,97897.66
2022-10-17T01:19:04.308Z,97895.97
2022-10-17T01:21:38.770Z,97899.63
2022-10-17T01:24:48.666Z,97896.28
2022-10-17T01:27:34.853Z,97893.63
2022-10-17T01:30:23.000Z,97891.13
2022-10-17T01:32:56.563Z,97891.13
2022-10-17T01:35:28.484Z,97885.94
2022-10-17T01:38:02.610Z,97884.25
2022-10-17T01:40:35.193Z,97888.75
2022-10-17T01:43:06.679Z,97891.56
2022-10-17T01:45:39.570Z,97890.72
2022-10-17T01:48:14.132Z,97885.56
2022-10-17T01:50:46.132Z,97885.56
2022-10-17T01:53:17.885Z,97881.22
2022-10-17T01:55:47.644Z,97883.19
2022-10-17T01:58:20.053Z,97883.19
2022-10-17T02:00:49.047Z,97875.34
2022-10-17T02:03:20.570Z,97879.84
2022-10-17T02:05:49.342Z,97877.19
2022-10-17T02:08:26.829Z,97877.34
2022-10-17T02:10:58.838Z,97877.34
2022-10-17T02:13:35.181Z,97880.13
2022-10-17T02:16:12.782Z,97873.97
2022-10-17T02:18:49.008Z,97875.94
2022-10-17T02:21:21.609Z,97880.44
2022-10-17T02:23:54.081Z,97880.44
2022-10-17T02:26:27.223Z,97877.09
2022-10-17T02:29:02.161Z,97878.91
2022-10-17T02:31:32.696Z,97880.72
2022-10-17T02:34:03.908Z,97877.22
2022-10-17T02:36:37.915Z,97880.03
2022-10-17T02:39:07.961Z,97880.03
2022-10-17T02:41:37.852Z,97879.34
2022-10-17T02:44:08.054Z,97882.00
2022-10-17T02:46:36.903Z,97875.16
2022-10-17T02:49:11.585Z,97878.66
2022-10-17T02:51:44.505Z,97877.81
2022-10-17T02:54:19.427Z,97885.94
2022-10-17T02:56:52.367Z,97877.97
2022-10-17T02:59:22.939Z,97883.44
2022-10-17T03:01:52.277Z,97887.91
2022-10-17T03:04:21.768Z,97887.09
2022-10-17T03:06:50.256Z,97891.72
2022-10-17T03:09:19.930Z,97896.19
2022-10-17T03:11:48.163Z,97892.69
2022-10-17T03:14:16.551Z,97895.47
2022-10-17T03:16:44.857Z,97895.63
2022-10-17T03:19:13.332Z,97900.09
2022-10-17T03:21:42.951Z,97897.44
2022-10-17T03:24:11.529Z,97894.09
2022-10-17T03:26:40.477Z,97900.38
2022-10-17T03:29:09.466Z,97907.38
2022-10-17T03:31:37.795Z,97906.69
2022-10-17T03:34:07.864Z,97906.00
2022-10-17T03:36:36.189Z,97913.00
2022-10-17T03:39:06.627Z,97908.66
2022-10-17T03:41:35.417Z,97913.97
2022-10-17T03:44:03.838Z,97904.31
2022-10-17T03:46:32.927Z,97906.16
2022-10-17T03:49:02.341Z,97910.63
2022-10-17T03:51:31.090Z,97912.59
2022-10-17T03:54:06.015Z,97917.06
2022-10-17T03:56:34.741Z,97918.88
2022-10-17T03:59:14.022Z,97928.69
2022-10-17T04:01:44.320Z,97930.50
2022-10-17T04:04:14.458Z,97934.13
2022-10-17T04:06:43.220Z,97935.13
2022-10-17T04:09:13.996Z,97923.78
2022-10-17T04:11:54.013Z,97930.13
2022-10-17T04:14:23.594Z,97930.94
2022-10-17T04:16:53.460Z,97938.09
2022-10-17T04:19:22.938Z,97938.25
2022-10-17T04:21:51.983Z,97938.38
2022-10-17T04:24:22.729Z,97941.03
2022-10-17T04:26:51.933Z,97939.38
2022-10-17T04:29:22.136Z,97938.69
2022-10-17T04:31:53.522Z,97941.34
2022-10-17T04:34:29.075Z,97937.00
2022-10-17T04:36:57.516Z,97943.16
2022-10-17T04:39:27.392Z,97937.97
2022-10-17T04:41:57.152Z,97945.13
2022-10-17T04:44:25.606Z,97946.25
2022-10-17T04:46:54.548Z,97940.94
2022-10-17T04:49:24.275Z,97944.56
2022-10-17T04:51:55.958Z,97941.91
2022-10-17T04:54:33.998Z,97942.19
2022-10-17T04:57:09.751Z,97948.34
2022-10-17T04:59:38.540Z,97947.50
2022-10-17T05:02:19.064Z,97950.31
2022-10-17T05:04:48.295Z,97953.94
2022-10-17T05:07:17.673Z,97958.44
2022-10-17T05:10:10.841Z,97952.28
2022-10-17T05:12:41.168Z,97957.59
2022-10-17T05:15:10.657Z,97952.41
2022-10-17T05:17:39.170Z,97950.75
2022-10-17T05:20:09.520Z,97954.38
2022-10-17T05:22:41.166Z,97955.34
2022-10-17T05:25:12.997Z,97958.00
2022-10-17T05:27:41.590Z,97959.84
2022-10-17T05:30:10.925Z,97952.00
2022-10-17T05:32:40.797Z,97952.16
2022-10-17T05:35:10.144Z,97966.28
2022-10-17T05:37:39.970Z,97964.59
2022-10-17T05:40:09.732Z,97969.91
2022-10-17T05:45:13.446Z,97979.00
2022-10-17T05:47:42.545Z,97984.44
2022-10-17T05:50:11.591Z,97983.63
2022-10-17T05:52:59.119Z,97993.41
2022-10-17T05:55:27.546Z,97987.38
2022-10-17T05:57:58.451Z,97990.03
2022-10-17T06:00:30.329Z,97996.34
2022-10-17T06:03:00.178Z,97993.69
2022-10-17T06:05:28.665Z,98004.31
2022-10-17T06:08:01.031Z,97999.13
2022-10-17T06:10:32.548Z,97992.97
2022-10-17T06:13:03.048Z,97997.47
2022-10-17T06:15:31.527Z,97993.13
2022-10-17T06:18:04.683Z,97999.28
2022-10-17T06:20:33.841Z,98008.22
2022-10-17T06:23:03.210Z,98010.03
2022-10-17T06:26:00.120Z,98019.81
2022-10-17T06:28:30.311Z,98017.16
2022-10-17T06:30:59.567Z,98020.81
2022-10-17T06:33:28.341Z,98018.16
2022-10-17T06:35:57.509Z,98025.28
2022-10-17T06:38:27.768Z,98029.75
2022-10-17T06:41:04.923Z,98028.91
2022-10-17T06:43:34.856Z,98033.25
2022-10-17T06:46:29.821Z,98028.06
2022-10-17T06:49:04.634Z,98036.75
2022-10-17T06:52:05.528Z,98045.69
2022-10-17T06:54:43.242Z,98039.53
2022-10-17T06:57:30.508Z,98041.34
2022-10-17T07:00:19.519Z,98034.34
2022-10-17T07:02:52.789Z,98037.00
2022-10-17T07:05:22.184Z,98052.94
2022-10-17T07:07:52.023Z,98060.91
2022-10-17T07:10:20.834Z,98065.25
2022-10-17T07:12:49.367Z,98074.19
2022-10-17T07:15:19.248Z,98074.19
2022-10-17T07:17:50.281Z,98072.53
2022-10-17T07:20:19.752Z,98077.81
2022-10-17T07:22:48.186Z,98077.81
2022-10-17T07:25:17.194Z,98090.97
2022-10-17T07:27:51.232Z,98083.97
2022-10-17T07:30:22.218Z,98081.31
2022-10-17T07:33:53.366Z,98070.97
2022-10-17T07:36:22.517Z,98075.88
2022-10-17T07:38:51.616Z,98081.19
2022-10-17T07:41:21.957Z,98086.22
2022-10-17T07:43:51.805Z,98076.72
2022-10-17T07:46:24.928Z,98087.34
2022-10-17T07:48:54.695Z,98089.16
2022-10-17T07:51:23.572Z,98086.50
2022-10-17T07:53:52.697Z,98094.47
2022-10-17T07:56:24.746Z,98094.47
2022-10-17T07:58:54.144Z,98096.28
2022-10-17T08:01:22.507Z,98098.94
2022-10-17T08:03:50.796Z,98101.44
2022-10-17T08:06:20.605Z,98101.31
2022-10-17T08:08:49.154Z,98103.13
2022-10-17T08:11:17.875Z,98104.94
2022-10-17T08:13:46.413Z,98119.06
2022-10-17T08:16:14.762Z,98112.22
2022-10-17T08:18:43.921Z,98107.75
2022-10-17T08:21:14.045Z,98104.09
2022-10-17T08:23:43.785Z,98108.59
2022-10-17T08:26:13.522Z,98102.44
2022-10-17T08:28:42.078Z,98114.72
2022-10-17T08:31:11.943Z,98109.56
2022-10-17T08:33:40.746Z,98103.28
2022-10-17T08:36:09.852Z,98098.78
2022-10-17T08:38:43.057Z,98097.13
2022-10-17T08:41:26.145Z,98092.66
2022-10-17T08:44:03.745Z,98100.34
2022-10-17T08:46:33.769Z,98094.19
2022-10-17T08:49:04.508Z,98103.69
2022-10-17T08:51:35.262Z,98106.50
2022-10-17T08:54:07.662Z,98116.13
2022-10-17T08:56:49.048Z,98110.81
2022-10-17T08:59:24.005Z,98111.53
2022-10-17T09:02:01.191Z,98112.50
2022-10-17T09:04:42.802Z,98117.53
2022-10-17T09:07:16.033Z,98115.88
2022-10-17T09:09:51.931Z,98118.09
2022-10-17T09:12:24.930Z,98127.47
2022-10-17T09:15:12.714Z,98125.38
2022-10-17T09:17:50.506Z,98126.34
2022-10-17T09:20:22.190Z,98133.75
2022-10-17T09:22:53.492Z,98127.75
2022-10-17T09:25:23.424Z,98123.41
2022-10-17T09:27:56.421Z,98128.59
2022-10-17T09:30:44.561Z,98125.78
2022-10-17T09:33:28.320Z,98135.16
2022-10-17T09:36:10.647Z,98130.69
2022-10-17T09:38:41.739Z,98132.78
2022-10-17T09:41:43.028Z,98136.16
2022-10-17T09:44:25.587Z,98140.78
2022-10-17T09:47:19.146Z,98142.44
2022-10-17T09:49:49.335Z,98137.56
2022-10-17T09:52:21.371Z,98125.53
2022-10-17T09:54:51.601Z,98128.75
2022-10-17T09:57:21.105Z,98139.06
2022-10-17T09:59:58.553Z,98131.78
2022-10-17T10:02:28.797Z,98134.16
2022-10-17T10:05:04.946Z,98122.56
2022-10-17T10:07:36.792Z,98130.25
2022-10-17T10:10:08.031Z,98126.63
2022-10-17T10:12:38.175Z,98123.69
2022-10-17T10:15:33.337Z,98124.38
2022-10-17T10:18:01.863Z,98128.56
2022-10-17T10:20:33.492Z,98122.28
2022-10-17T10:23:13.400Z,98125.53
2022-10-17T10:25:54.090Z,98121.75
2022-10-17T10:28:26.222Z,98117.25
2022-10-17T10:30:57.217Z,98117.81
2022-10-17T10:33:28.404Z,98120.19
2022-10-17T10:35:58.555Z,98120.03
2022-10-17T10:38:27.188Z,98125.06
2022-10-17T10:40:56.923Z,98119.47
2022-10-17T10:43:30.518Z,98120.16
2022-10-17T10:46:01.644Z,98122.53
2022-10-17T10:48:33.209Z,98124.22
2022-10-17T10:51:03.668Z,98110.09
2022-10-17T10:53:38.194Z,98113.31
2022-10-17T10:56:10.918Z,98116.38
2022-10-17T10:58:45.365Z,98108.09
2022-10-17T11:01:20.204Z,98110.63
2022-10-17T11:03:56.866Z,98113.00
2022-10-17T11:06:33.753Z,98109.34
2022-10-17T11:09:12.752Z,98115.50
2022-10-17T11:11:44.696Z,98097.72
2022-10-17T11:14:16.826Z,98097.28
2022-10-17T11:16:50.472Z,98090.97
2022-10-17T11:19:25.995Z,98096.66
2022-10-17T11:22:10.436Z,98087.56
2022-10-17T11:24:41.968Z,98092.59
2022-10-17T11:27:10.705Z,98090.75
2022-10-17T11:29:41.463Z,98096.78
2022-10-17T11:32:16.251Z,98096.50
2022-10-17T11:34:46.833Z,98098.16
2022-10-17T11:37:18.864Z,98095.22
2022-10-17T11:39:51.600Z,98091.84
2022-10-17T11:42:22.623Z,98090.03
2022-10-17T11:44:54.860Z,98081.91
2022-10-17T11:47:32.069Z,98084.41
2022-10-17T11:52:56.982Z,98080.78
2022-10-17T11:55:27.427Z,98087.78
2022-10-17T11:58:03.000Z,98083.28
2022-10-17T12:00:46.133Z,98072.50
2022-10-17T12:03:30.276Z,98071.22
2022-10-17T12:06:01.555Z,98068.25
2022-10-17T12:08:34.700Z,98068.25
2022-10-17T12:11:12.455Z,98073.56
2022-10-17T12:13:55.108Z,98065.44
2022-10-17T12:19:33.894Z,98061.69
2022-10-17T12:22:21.497Z,98059.03
2022-10-17T12:25:00.898Z,98068.78
2022-10-17T12:27:36.097Z,98063.47
2022-10-17T12:30:07.771Z,98067.84
2022-10-17T12:33:00.074Z,98067.97
2022-10-17T12:35:28.278Z,98063.47
2022-10-17T12:38:09.639Z,98059.84
2022-10-17T12:41:08.087Z,98062.53
2022-10-17T12:43:46.778Z,98060.69
2022-10-17T12:46:51.030Z,98064.88
2022-10-17T12:49:47.846Z,98065.72
2022-10-17T12:52:25.858Z,98066.25
2022-10-17T12:55:11.483Z,98061.78
2022-10-17T12:57:45.586Z,98070.44
2022-10-17T13:00:19.192Z,98071.28
2022-10-17T13:02:49.050Z,98067.63
2022-10-17T13:05:22.366Z,98071.69
2022-10-17T13:07:52.762Z,98066.34
2022-10-17T13:10:24.060Z,98070.69
2022-10-17T13:13:04.617Z,98069.03
2022-10-17T13:15:33.295Z,98063.53
2022-10-17T13:18:02.538Z,98069.72
2022-10-17T13:20:32.756Z,98071.22
2022-10-17T13:23:02.566Z,98066.75
2022-10-17T13:25:30.967Z,98070.94
2022-10-17T13:28:09.675Z,98069.78
2022-10-17T13:30:38.435Z,98066.00
2022-10-17T13:33:26.040Z,98069.19
2022-10-17T13:36:01.663Z,98063.56
2022-10-17T13:38:35.631Z,98075.59
2022-10-17T13:41:34.355Z,98079.78
2022-10-17T13:44:02.746Z,98073.13
2022-10-17T13:46:38.913Z,98077.19
2022-10-17T13:49:14.244Z,98078.53
2022-10-17T13:51:44.907Z,98076.72
2022-10-17T13:54:33.009Z,98070.09
2022-10-17T13:57:02.392Z,98076.81
2022-10-17T13:59:35.454Z,98073.84
2022-10-17T14:02:05.884Z,98070.88
2022-10-17T14:04:56.636Z,98079.38
2022-10-17T14:07:34.335Z,98075.59
2022-10-17T14:10:20.668Z,98065.91
2022-10-17T14:12:51.030Z,98068.41
2022-10-17T14:15:19.978Z,98058.28
2022-10-17T14:17:55.408Z,98068.97
2022-10-17T14:20:57.541Z,98071.63
2022-10-17T14:23:30.681Z,98073.28
2022-10-17T14:26:10.350Z,98072.16
2022-10-17T14:28:39.596Z,98073.69
2022-10-17T14:31:21.106Z,98068.91
2022-10-17T14:33:51.228Z,98071.41
2022-10-17T14:36:20.799Z,98072.94
2022-10-17T14:38:52.301Z,98070.13
2022-10-17T14:44:21.735Z,98076.66
2022-10-17T14:46:54.280Z,98086.19
2022-10-17T14:49:27.651Z,98087.19
2022-10-17T14:52:28.831Z,98084.19
2022-10-17T14:54:58.943Z,98087.84
2022-10-17T14:57:40.851Z,98086.88
2022-10-17T15:00:14.319Z,98084.03
2022-10-17T15:02:42.821Z,98083.88
2022-10-17T15:05:13.417Z,98087.91
2022-10-17T15:07:42.689Z,98096.59
2022-10-17T15:10:25.602Z,98105.28
2022-10-17T15:12:59.281Z,98105.09
2022-10-17T15:15:39.335Z,98097.94
2022-10-17T15:18:08.384Z,98111.13
2022-10-17T15:20:36.914Z,98105.78
2022-10-17T15:23:05.593Z,98107.63
2022-10-17T15:25:34.511Z,98098.78
2022-10-17T15:28:04.216Z,98103.28
2022-10-17T15:30:37.104Z,98097.94
2022-10-17T15:33:05.914Z,98109.44
2022-10-17T15:35:34.613Z,98107.78
2022-10-17T15:38:02.961Z,98107.78
2022-10-17T15:40:31.630Z,98109.59
2022-10-17T15:43:00.154Z,98107.13
2022-10-17T15:45:30.083Z,98111.63
2022-10-17T15:48:06.862Z,98109.09
2022-10-17T15:50:35.461Z,98103.91
2022-10-17T15:53:06.075Z,98109.41
2022-10-17T15:55:34.462Z,98116.56
2022-10-17T15:58:03.048Z,98109.56
2022-10-17T16:00:33.133Z,98105.22
2022-10-17T16:03:01.922Z,98117.72
2022-10-17T16:05:30.338Z,98114.22
2022-10-17T16:07:58.851Z,98117.72
2022-10-17T16:10:28.134Z,98124.03
2022-10-17T16:12:56.623Z,98117.88
2022-10-17T16:15:28.114Z,98117.88
2022-10-17T16:18:01.666Z,98125.88
2022-10-17T16:20:32.746Z,98119.84
2022-10-17T16:23:03.064Z,98139.34
2022-10-17T16:25:32.511Z,98134.03
2022-10-17T16:28:02.066Z,98142.03
2022-10-17T16:30:31.778Z,98141.19
2022-10-17T16:33:02.442Z,98140.50
2022-10-17T16:35:34.844Z,98143.16
2022-10-17T16:38:06.661Z,98145.69
2022-10-17T16:40:35.576Z,98144.16
2022-10-17T16:43:03.960Z,98150.34
2022-10-17T16:45:32.766Z,98152.16
2022-10-17T16:48:02.559Z,98143.31
2022-10-17T16:50:35.325Z,98148.66
2022-10-17T16:53:04.032Z,98146.97
2022-10-17T16:55:32.467Z,98152.47
2022-10-17T16:58:01.528Z,98147.28
2022-10-17T17:00:30.231Z,98158.78
2022-10-17T17:02:58.622Z,98155.28
2022-10-17T17:05:28.340Z,98163.28
2022-10-17T17:07:57.008Z,98161.59
2022-10-17T17:10:25.499Z,98166.09
2022-10-17T17:12:54.027Z,98159.94
2022-10-17T17:15:22.874Z,98160.91
2022-10-17T17:17:55.100Z,98172.56
2022-10-17T17:20:24.112Z,98163.75
2022-10-17T17:22:54.077Z,98168.22
2022-10-17T17:25:22.995Z,98164.72
2022-10-17T17:27:51.619Z,98171.06
2022-10-17T17:30:19.959Z,98164.03
2022-10-17T17:32:48.396Z,98172.88
2022-10-17T17:35:16.985Z,98166.03
2022-10-17T17:37:45.461Z,98170.38
2022-10-17T17:40:15.475Z,98172.34
2022-10-17T17:42:43.999Z,98167.00
2022-10-17T17:45:13.580Z,98171.50
2022-10-17T17:47:42.060Z,98171.50
2022-10-17T17:50:11.074Z,98174.16
2022-10-17T17:52:42.147Z,98161.94
2022-10-17T17:55:10.687Z,98170.94
2022-10-17T17:57:40.561Z,98175.44
2022-10-17T18:00:10.253Z,98169.25
2022-10-17T18:02:42.171Z,98175.56
2022-10-17T18:05:14.625Z,98172.91
2022-10-17T18:07:43.062Z,98169.56
2022-10-17T18:12:46.206Z,98183.88
2022-10-17T18:15:15.601Z,98186.53
2022-10-17T18:17:43.975Z,98179.53
2022-10-17T18:20:13.247Z,98183.19
2022-10-17T18:22:41.808Z,98180.53
2022-10-17T18:25:10.651Z,98181.50
2022-10-17T18:27:39.185Z,98173.66
2022-10-17T18:30:10.184Z,98174.50
2022-10-17T18:32:40.605Z,98176.47
2022-10-17T18:35:10.062Z,98180.97
2022-10-17T18:37:39.543Z,98182.81
2022-10-17T18:40:09.387Z,98177.47
2022-10-17T18:42:37.881Z,98170.47
2022-10-17T18:45:07.432Z,98177.63
2022-10-17T18:47:37.638Z,98184.78
2022-10-17T18:50:06.661Z,98188.44
2022-10-17T18:52:35.067Z,98185.75
2022-10-17T18:55:04.114Z,98197.41
2022-10-17T18:57:32.892Z,98200.22
2022-10-17T19:00:01.329Z,98207.38
2022-10-17T19:02:35.535Z,98207.53
2022-10-17T19:05:08.504Z,98206.69
2022-10-17T19:07:37.003Z,98207.81
2022-10-17T19:10:06.247Z,98207.13
2022-10-17T19:12:34.749Z,98211.63
2022-10-17T19:15:03.529Z,98209.94
2022-10-17T19:17:32.273Z,98216.25
2022-10-17T19:20:01.004Z,98229.59
2022-10-17T19:22:32.907Z,98239.25
2022-10-17T19:25:01.292Z,98237.59
2022-10-17T19:27:30.117Z,98230.72
2022-10-17T19:29:59.019Z,98229.19
2022-10-17T19:32:27.446Z,98229.34
2022-10-17T19:34:56.123Z,98225.84
2022-10-17T19:37:24.666Z,98221.50
2022-10-17T19:39:54.648Z,98225.97
2022-10-17T19:42:23.129Z,98227.81
2022-10-17T19:44:51.518Z,98223.47
2022-10-17T19:47:19.839Z,98219.81
2022-10-17T19:49:50.102Z,98224.44
2022-10-17T19:52:19.062Z,98225.63
2022-10-17T19:54:47.745Z,98223.78
2022-10-17T19:57:17.334Z,98223.09
2022-10-17T19:59:45.740Z,98229.41
2022-10-17T20:02:14.622Z,98232.06
2022-10-17T20:04:54.342Z,98240.06
2022-10-17T20:07:31.935Z,98224.09
2022-10-17T20:10:00.528Z,98222.56
2022-10-17T20:12:30.666Z,98227.88
2022-10-17T20:15:00.652Z,98230.69
2022-10-17T20:17:29.237Z,98233.50
2022-10-17T20:19:58.141Z,98238.69
2022-10-17T20:22:26.648Z,98237.00
2022-10-17T20:24:55.181Z,98241.63
2022-10-17T20:27:27.577Z,98245.28
2022-10-17T20:30:01.678Z,98255.09
2022-10-17T20:32:32.041Z,98248.94
2022-10-17T20:35:00.759Z,98245.59
2022-10-17T20:37:29.702Z,98253.72
2022-10-17T20:40:22.661Z,98254.69
2022-10-17T20:42:47.508Z,98252.03
2022-10-17T20:45:17.972Z,98256.66
2022-10-17T20:47:53.977Z,98257.81
2022-10-17T20:50:22.945Z,98251.63
2022-10-17T20:53:01.041Z,98250.66
2022-10-17T20:55:40.473Z,98248.97
2022-10-17T20:58:10.577Z,98246.44
2022-10-17T21:00:40.816Z,98257.94
2022-10-17T21:03:10.130Z,98260.75
2022-10-17T21:05:42.003Z,98261.72
2022-10-17T21:08:10.708Z,98261.03
2022-10-17T21:10:39.655Z,98273.38
2022-10-17T21:13:08.110Z,98264.69
2022-10-17T21:15:37.583Z,98260.34
2022-10-17T21:18:07.338Z,98267.50
2022-10-17T21:20:35.941Z,98257.81
2022-10-17T21:23:04.608Z,98260.78
2022-10-17T21:25:33.476Z,98265.13
2022-10-17T21:28:02.493Z,98260.63
2022-10-17T21:30:31.384Z,98265.25
2022-10-17T21:32:59.897Z,98259.94
2022-10-17T21:35:29.932Z,98268.91
2022-10-17T21:37:58.411Z,98261.06
2022-10-17T21:40:27.211Z,98266.53
2022-10-17T21:42:55.891Z,98263.03
2022-10-17T21:45:25.971Z,98258.81
2022-10-17T21:48:12.172Z,98254.31
2022-10-17T21:50:42.919Z,98258.81
2022-10-17T21:53:11.709Z,98256.13
2022-10-17T21:55:40.303Z,98262.44
2022-10-17T21:58:11.258Z,98267.06
2022-10-17T22:00:40.719Z,98257.41
2022-10-17T22:03:09.636Z,98265.38
2022-10-17T22:05:38.535Z,98261.06
2022-10-17T22:08:08.740Z,98260.34
2022-10-17T22:10:38.092Z,98268.34
2022-10-17T22:13:06.846Z,98265.81
2022-10-17T22:15:35.409Z,98264.97
2022-10-17T22:18:03.887Z,98257.13
2022-10-17T22:20:34.653Z,98259.94
2022-10-17T22:23:03.309Z,98257.28
2022-10-17T22:25:33.247Z,98257.28
2022-10-17T22:28:01.939Z,98260.09
2022-10-17T22:30:30.999Z,98266.38
2022-10-17T22:32:59.880Z,98271.84
2022-10-17T22:35:28.800Z,98263.03
2022-10-17T22:37:57.611Z,98270.19
2022-10-17T22:40:26.275Z,98269.47
2022-10-17T22:42:56.169Z,98268.63
2022-10-17T22:45:24.877Z,98258.00
2022-10-17T22:47:54.372Z,98261.63
2022-10-17T22:50:23.353Z,98250.28
2022-10-17T22:52:52.095Z,98258.28
2022-10-17T22:55:20.636Z,98246.78
2022-10-17T22:57:49.208Z,98246.09
2022-10-17T23:00:19.410Z,98237.28
2022-10-17T23:02:48.026Z,98240.06
2022-10-17T23:05:16.706Z,98238.25
2022-10-17T23:07:45.444Z,98227.75
2022-10-17T23:10:13.990Z,98230.41
2022-10-17T23:12:42.540Z,98229.72
2022-10-17T23:15:11.585Z,98228.06
2022-10-17T23:17:44.141Z,98230.72
2022-10-17T23:20:12.717Z,98223.88
2022-10-17T23:22:41.056Z,98228.34
2022-10-17T23:25:09.804Z,98223.03
2022-10-17T23:27:38.173Z,98232.00
2022-10-17T23:30:07.662Z,98239.28
2022-10-17T23:32:36.166Z,98239.28
2022-10-17T23:35:06.480Z,98234.94
2022-10-17T23:37:35.217Z,98233.41
2022-10-17T23:40:04.851Z,98230.75
2022-10-17T23:42:33.577Z,98230.75
2022-10-17T23:45:02.058Z,98233.53
2022-10-17T23:47:31.311Z,98226.53
2022-10-17T23:50:00.082Z,98227.53
2022-10-17T23:52:29.828Z,98228.50
2022-10-17T23:54:58.142Z,98234.81
2022-10-17T23:57:26.516Z,98231.31
2022-10-17T23:59:55.503Z,98226.97
